createdAt,value
2018-05-13T00:00:54.527Z,0
2018-05-13T00:02:04.512Z,0
2018-05-13T00:03:16.220Z,0
2018-05-13T00:04:26.829Z,0
2018-05-13T00:05:36.555Z,0
2018-05-13T00:06:46.530Z,0
2018-05-13T00:07:56.237Z,0
2018-05-13T00:09:14.289Z,0
2018-05-13T00:10:24.249Z,0
2018-05-13T00:11:34.710Z,0
2018-05-13T00:12:46.295Z,0
2018-05-13T00:13:57.099Z,0
2018-05-13T00:15:13.986Z,0
2018-05-13T00:16:24.159Z,0
2018-05-13T00:17:34.942Z,0
2018-05-13T00:18:45.850Z,0
2018-05-13T00:20:04.125Z,0
2018-05-13T00:21:14.688Z,0
2018-05-13T00:22:25.706Z,0
2018-05-13T00:23:38.143Z,0
2018-05-13T00:24:49.761Z,0
2018-05-13T00:26:00.186Z,0
2018-05-13T00:27:11.592Z,0
2018-05-13T00:28:22.833Z,0
2018-05-13T00:29:34.108Z,0
2018-05-13T00:30:57.207Z,0
2018-05-13T00:32:07.330Z,0
2018-05-13T00:33:17.309Z,0
2018-05-13T00:34:27.291Z,0
2018-05-13T00:35:36.735Z,0
2018-05-13T00:36:46.695Z,0
2018-05-13T00:37:56.419Z,0
2018-05-13T00:39:06.411Z,0
2018-05-13T00:40:16.157Z,0
2018-05-13T00:41:26.349Z,0
2018-05-13T00:42:36.342Z,0
2018-05-13T00:43:46.319Z,0
2018-05-13T00:44:56.274Z,0
2018-05-13T00:46:05.988Z,0
2018-05-13T00:47:15.971Z,0
2018-05-13T00:48:25.677Z,0
2018-05-13T00:49:35.399Z,0
2018-05-13T00:50:45.428Z,0
2018-05-13T00:51:55.255Z,0
2018-05-13T00:53:04.978Z,0
2018-05-13T00:54:14.943Z,0
2018-05-13T00:55:24.910Z,0
2018-05-13T00:56:34.893Z,0
2018-05-13T00:57:44.882Z,0
2018-05-13T00:58:54.594Z,0
2018-05-13T01:00:04.577Z,0
2018-05-13T01:01:14.548Z,0
2018-05-13T01:02:24.279Z,0
2018-05-13T01:03:34.254Z,0
2018-05-13T01:04:44.236Z,0
2018-05-13T01:05:54.238Z,0
2018-05-13T01:07:03.969Z,0
2018-05-13T01:08:13.948Z,0
2018-05-13T01:09:23.922Z,0
2018-05-13T01:10:33.894Z,0
2018-05-13T01:11:43.880Z,0
2018-05-13T01:12:53.849Z,0
2018-05-13T01:14:03.562Z,0
2018-05-13T01:15:13.540Z,0
2018-05-13T01:16:23.527Z,0
2018-05-13T01:17:33.485Z,0
2018-05-13T01:18:43.261Z,0
2018-05-13T01:19:53.224Z,0
2018-05-13T01:21:03.190Z,0
2018-05-13T01:22:13.166Z,0
2018-05-13T01:23:22.877Z,0
2018-05-13T01:24:32.344Z,0
2018-05-13T01:25:42.075Z,0
2018-05-13T01:26:52.078Z,0
2018-05-13T01:28:02.050Z,0
2018-05-13T01:29:12.020Z,0
2018-05-13T01:30:21.737Z,0
2018-05-13T01:31:31.700Z,0
2018-05-13T01:32:41.670Z,0
2018-05-13T01:33:51.649Z,0
2018-05-13T01:35:01.631Z,0
2018-05-13T01:36:11.656Z,0
2018-05-13T01:37:21.640Z,0
2018-05-13T01:38:31.610Z,0
2018-05-13T01:39:41.320Z,0
2018-05-13T01:40:51.040Z,0
2018-05-13T01:42:01.014Z,0
2018-05-13T01:43:10.988Z,0
2018-05-13T01:44:20.704Z,0
2018-05-13T01:45:30.676Z,0
2018-05-13T01:46:40.383Z,0
2018-05-13T01:47:50.357Z,0
2018-05-13T01:49:00.334Z,0
2018-05-13T01:50:10.054Z,0
2018-05-13T01:51:20.021Z,0
2018-05-13T01:52:29.735Z,0
2018-05-13T01:53:39.438Z,0
2018-05-13T01:54:49.418Z,0
2018-05-13T01:55:59.396Z,0
2018-05-13T01:57:09.381Z,0
2018-05-13T01:58:19.157Z,0
2018-05-13T01:59:29.140Z,0
2018-05-13T02:00:39.136Z,0
2018-05-13T02:01:48.907Z,0
2018-05-13T02:02:59.474Z,0
2018-05-13T02:04:09.896Z,0
2018-05-13T02:05:19.878Z,0
2018-05-13T02:06:29.798Z,0
2018-05-13T02:07:39.786Z,0
2018-05-13T02:08:49.508Z,0
2018-05-13T02:09:59.476Z,0
2018-05-13T02:11:09.226Z,0
2018-05-13T02:12:19.192Z,0
2018-05-13T02:13:28.903Z,0
2018-05-13T02:14:38.614Z,0
2018-05-13T02:15:48.582Z,0
2018-05-13T02:16:58.797Z,0
2018-05-13T02:18:08.779Z,0
2018-05-13T02:19:18.769Z,0
2018-05-13T02:20:28.771Z,0
2018-05-13T02:21:39.394Z,0
2018-05-13T02:22:50.398Z,0
2018-05-13T02:24:02.062Z,0
2018-05-13T02:25:13.697Z,0
2018-05-13T02:26:24.394Z,0
2018-05-13T02:27:35.607Z,0
2018-05-13T02:28:47.696Z,0
2018-05-13T02:29:58.105Z,0
2018-05-13T02:31:10.225Z,0
2018-05-13T02:32:20.899Z,4
2018-05-13T02:33:30.888Z,4
2018-05-13T02:34:43.699Z,0
2018-05-13T02:35:53.418Z,4
2018-05-13T02:37:03.438Z,4
2018-05-13T02:38:13.616Z,4
2018-05-13T02:39:23.591Z,4
2018-05-13T02:40:33.558Z,4
2018-05-13T02:41:43.277Z,8
2018-05-13T02:42:52.737Z,8
2018-05-13T02:44:02.712Z,12
2018-05-13T02:45:12.680Z,12
2018-05-13T02:46:22.670Z,12
2018-05-13T02:47:32.413Z,16
2018-05-13T02:48:42.141Z,20
2018-05-13T02:49:51.860Z,24
2018-05-13T02:51:01.829Z,24
2018-05-13T02:52:11.546Z,32
2018-05-13T02:53:21.528Z,36
2018-05-13T02:54:31.257Z,44
2018-05-13T02:55:40.967Z,52
2018-05-13T02:56:50.940Z,60
2018-05-13T02:58:00.661Z,72
2018-05-13T02:59:10.800Z,80
2018-05-13T03:00:20.508Z,96
2018-05-13T03:01:30.479Z,108
2018-05-13T03:02:40.454Z,124
2018-05-13T03:03:50.187Z,140
2018-05-13T03:05:00.169Z,160
2018-05-13T03:06:09.885Z,180
2018-05-13T03:07:19.863Z,204
2018-05-13T03:08:29.588Z,228
2018-05-13T03:09:39.307Z,256
2018-05-13T03:10:49.294Z,284
2018-05-13T03:11:59.019Z,316
2018-05-13T03:13:08.737Z,352
2018-05-13T03:14:18.454Z,388
2018-05-13T03:15:28.162Z,428
2018-05-13T03:16:37.880Z,468
2018-05-13T03:17:47.845Z,512
2018-05-13T03:18:57.894Z,560
2018-05-13T03:20:07.922Z,608
2018-05-13T03:21:17.900Z,652
2018-05-13T03:22:27.884Z,704
2018-05-13T03:23:37.609Z,760
2018-05-13T03:24:47.423Z,816
2018-05-13T03:25:57.122Z,872
2018-05-13T03:27:07.097Z,932
2018-05-13T03:28:16.875Z,992
2018-05-13T03:29:26.837Z,1048
2018-05-13T03:30:36.807Z,1112
2018-05-13T03:31:46.544Z,1184
2018-05-13T03:32:56.504Z,1252
2018-05-13T03:34:05.980Z,1312
2018-05-13T03:35:15.962Z,1392
2018-05-13T03:36:25.724Z,1464
2018-05-13T03:37:35.441Z,1540
2018-05-13T03:38:45.417Z,1620
2018-05-13T03:39:55.129Z,1700
2018-05-13T03:41:05.104Z,1780
2018-05-13T03:42:15.060Z,1864
2018-05-13T03:43:25.097Z,1952
2018-05-13T03:44:35.309Z,2040
2018-05-13T03:45:45.027Z,2124
2018-05-13T03:46:55.011Z,2204
2018-05-13T03:48:04.980Z,2288
2018-05-13T03:49:19.900Z,2376
2018-05-13T03:50:30.417Z,2464
2018-05-13T03:51:40.385Z,2548
2018-05-13T03:52:50.351Z,2632
2018-05-13T03:54:00.053Z,2716
2018-05-13T03:55:10.019Z,2800
2018-05-13T03:56:19.993Z,2884
2018-05-13T03:57:29.967Z,2972
2018-05-13T03:58:39.950Z,3060
2018-05-13T03:59:49.918Z,3148
2018-05-13T04:00:59.880Z,3228
2018-05-13T04:02:09.882Z,3316
2018-05-13T04:03:19.586Z,3396
2018-05-13T04:04:29.560Z,3484
2018-05-13T04:05:39.271Z,3568
2018-05-13T04:06:48.996Z,3652
2018-05-13T04:07:58.965Z,3736
2018-05-13T04:09:08.951Z,3820
2018-05-13T04:10:18.919Z,3900
2018-05-13T04:11:28.877Z,3976
2018-05-13T04:12:38.847Z,4064
2018-05-13T04:13:48.817Z,4148
2018-05-13T04:14:58.790Z,4220
2018-05-13T04:16:08.509Z,4304
2018-05-13T04:17:18.242Z,4384
2018-05-13T04:18:28.245Z,4460
2018-05-13T04:19:38.213Z,4540
2018-05-13T04:20:48.188Z,4612
2018-05-13T04:21:58.155Z,4692
2018-05-13T04:23:07.863Z,4768
2018-05-13T04:24:17.569Z,4836
2018-05-13T04:25:27.535Z,4912
2018-05-13T04:26:37.282Z,4992
2018-05-13T04:27:47.266Z,5064
2018-05-13T04:28:57.254Z,5140
2018-05-13T04:30:06.976Z,5212
2018-05-13T04:31:16.940Z,5288
2018-05-13T04:32:26.914Z,5360
2018-05-13T04:33:36.886Z,5432
2018-05-13T04:34:46.855Z,5500
2018-05-13T04:35:56.577Z,5572
2018-05-13T04:37:06.560Z,5628
2018-05-13T04:38:16.539Z,5688
2018-05-13T04:39:26.515Z,5748
2018-05-13T04:40:36.485Z,5796
2018-05-13T04:41:45.942Z,5856
2018-05-13T04:42:55.399Z,5920
2018-05-13T04:44:05.386Z,5980
2018-05-13T04:45:15.363Z,6036
2018-05-13T04:46:25.331Z,6092
2018-05-13T04:47:35.323Z,6144
2018-05-13T04:48:45.036Z,6196
2018-05-13T04:49:55.008Z,6260
2018-05-13T04:51:04.478Z,6320
2018-05-13T04:52:14.447Z,6384
2018-05-13T04:53:24.178Z,6440
2018-05-13T04:54:34.228Z,6492
2018-05-13T04:55:43.935Z,6552
2018-05-13T04:56:53.905Z,6604
2018-05-13T04:58:03.624Z,6664
2018-05-13T04:59:13.343Z,6728
2018-05-13T05:00:23.068Z,6788
2018-05-13T05:01:33.050Z,6848
2018-05-13T05:02:42.769Z,6908
2018-05-13T05:03:52.744Z,6968
2018-05-13T05:05:02.722Z,7028
2018-05-13T05:06:12.432Z,7084
2018-05-13T05:07:22.147Z,7148
2018-05-13T05:08:32.109Z,7200
2018-05-13T05:09:42.078Z,7260
2018-05-13T05:10:52.060Z,7320
2018-05-13T05:12:01.779Z,7380
2018-05-13T05:13:11.496Z,7436
2018-05-13T05:14:21.484Z,7480
2018-05-13T05:15:31.461Z,7544
2018-05-13T05:16:41.438Z,7592
2018-05-13T05:17:51.425Z,7640
2018-05-13T05:19:01.398Z,7688
2018-05-13T05:20:11.376Z,7736
2018-05-13T05:21:21.094Z,7792
2018-05-13T05:22:30.804Z,7852
2018-05-13T05:23:40.514Z,7908
2018-05-13T05:24:50.236Z,7956
2018-05-13T05:25:59.950Z,8008
2018-05-13T05:27:09.677Z,8068
2018-05-13T05:28:19.647Z,8120
2018-05-13T05:29:29.190Z,8180
2018-05-13T05:30:39.161Z,8240
2018-05-13T05:31:49.145Z,8292
2018-05-13T05:32:59.137Z,8352
2018-05-13T05:34:09.120Z,8412
2018-05-13T05:35:18.825Z,8464
2018-05-13T05:36:28.798Z,8512
2018-05-13T05:37:38.793Z,8552
2018-05-13T05:38:48.510Z,8600
2018-05-13T05:39:58.494Z,8652
2018-05-13T05:41:08.200Z,8696
2018-05-13T05:42:18.171Z,8736
2018-05-13T05:43:28.138Z,8792
2018-05-13T05:44:37.851Z,8844
2018-05-13T05:45:47.572Z,8896
2018-05-13T05:46:57.292Z,8960
2018-05-13T05:48:07.258Z,9012
2018-05-13T05:49:17.244Z,9072
2018-05-13T05:50:26.950Z,9116
2018-05-13T05:51:36.944Z,9168
2018-05-13T05:52:46.929Z,9220
2018-05-13T05:53:56.651Z,9272
2018-05-13T05:55:06.642Z,9332
2018-05-13T05:56:16.619Z,9392
2018-05-13T05:57:26.333Z,9464
2018-05-13T05:58:36.047Z,9524
2018-05-13T05:59:46.024Z,9588
2018-05-13T06:00:55.987Z,9672
2018-05-13T06:02:05.965Z,9736
2018-05-13T06:03:15.572Z,9812
2018-05-13T06:04:25.600Z,9872
2018-05-13T06:05:35.565Z,9948
2018-05-13T06:06:45.020Z,10024
2018-05-13T06:07:55.063Z,10088
2018-05-13T06:09:04.780Z,10152
2018-05-13T06:10:14.749Z,10196
2018-05-13T06:11:24.723Z,10260
2018-05-13T06:12:34.698Z,10312
2018-05-13T06:13:44.158Z,10380
2018-05-13T06:14:53.602Z,10412
2018-05-13T06:16:03.567Z,10488
2018-05-13T06:17:13.557Z,10564
2018-05-13T06:18:23.534Z,10628
2018-05-13T06:19:33.281Z,10680
2018-05-13T06:20:42.744Z,10760
2018-05-13T06:21:52.727Z,10852
2018-05-13T06:23:02.710Z,10956
2018-05-13T06:24:12.444Z,11044
2018-05-13T06:25:22.885Z,11112
2018-05-13T06:26:32.612Z,11180
2018-05-13T06:27:42.338Z,11256
2018-05-13T06:28:52.321Z,11308
2018-05-13T06:30:02.300Z,11368
2018-05-13T06:31:12.275Z,11472
2018-05-13T06:32:21.727Z,11544
2018-05-13T06:33:31.698Z,11612
2018-05-13T06:34:41.674Z,11680
2018-05-13T06:35:51.664Z,11760
2018-05-13T06:37:01.421Z,11816
2018-05-13T06:38:11.401Z,11904
2018-05-13T06:39:21.385Z,11968
2018-05-13T06:40:30.837Z,12032
2018-05-13T06:41:40.804Z,12076
2018-05-13T06:42:50.774Z,12160
2018-05-13T06:44:00.239Z,12260
2018-05-13T06:45:09.984Z,12328
2018-05-13T06:46:19.992Z,12400
2018-05-13T06:47:29.976Z,12480
2018-05-13T06:48:39.687Z,12556
2018-05-13T06:49:49.673Z,12640
2018-05-13T06:50:59.641Z,12712
2018-05-13T06:52:09.902Z,12780
2018-05-13T06:53:19.900Z,12832
2018-05-13T06:54:29.929Z,12844
2018-05-13T06:55:39.654Z,12880
2018-05-13T06:56:49.373Z,12980
2018-05-13T06:57:59.364Z,13072
2018-05-13T06:59:09.181Z,13192
2018-05-13T07:00:19.178Z,13272
2018-05-13T07:01:28.919Z,13328
2018-05-13T07:02:38.663Z,13388
2018-05-13T07:03:48.418Z,13480
2018-05-13T07:04:58.486Z,13568
2018-05-13T07:06:08.477Z,13632
2018-05-13T07:07:18.185Z,13688
2018-05-13T07:08:27.905Z,13744
2018-05-13T07:09:37.929Z,13764
2018-05-13T07:10:47.924Z,13812
2018-05-13T07:11:57.909Z,13836
2018-05-13T07:13:07.882Z,13872
2018-05-13T07:14:17.603Z,13936
2018-05-13T07:15:27.319Z,13976
2018-05-13T07:16:37.303Z,14044
2018-05-13T07:17:47.022Z,14116
2018-05-13T07:18:56.995Z,14172
2018-05-13T07:20:06.714Z,14220
2018-05-13T07:21:16.692Z,14268
2018-05-13T07:22:26.407Z,14296
2018-05-13T07:23:36.124Z,14328
2018-05-13T07:24:45.844Z,14392
2018-05-13T07:25:55.818Z,14444
2018-05-13T07:27:05.793Z,14504
2018-05-13T07:28:15.513Z,14572
2018-05-13T07:29:25.315Z,14656
2018-05-13T07:30:35.053Z,14736
2018-05-13T07:31:44.799Z,14772
2018-05-13T07:32:54.587Z,14844
2018-05-13T07:34:04.560Z,14924
2018-05-13T07:35:14.542Z,14996
2018-05-13T07:36:24.539Z,15032
2018-05-13T07:37:34.519Z,15092
2018-05-13T07:38:44.235Z,15152
2018-05-13T07:39:53.686Z,15248
2018-05-13T07:41:03.673Z,15280
2018-05-13T07:42:13.651Z,15308
2018-05-13T07:43:23.897Z,15312
2018-05-13T07:44:33.740Z,15320
2018-05-13T07:45:43.463Z,15352
2018-05-13T07:46:53.469Z,15408
2018-05-13T07:48:03.445Z,15464
2018-05-13T07:49:13.419Z,15468
2018-05-13T07:50:22.909Z,15584
2018-05-13T07:51:32.639Z,15644
2018-05-13T07:52:42.351Z,15716
2018-05-13T07:53:51.822Z,15780
2018-05-13T07:55:01.798Z,15836
2018-05-13T07:56:11.517Z,15892
2018-05-13T07:57:21.243Z,15976
2018-05-13T07:58:31.239Z,16016
2018-05-13T07:59:40.950Z,16060
2018-05-13T08:00:50.937Z,16056
2018-05-13T08:02:00.905Z,16076
2018-05-13T08:03:10.897Z,16084
2018-05-13T08:04:20.897Z,16120
2018-05-13T08:05:30.103Z,16188
2018-05-13T08:06:39.829Z,16164
2018-05-13T08:07:49.818Z,16136
2018-05-13T08:08:59.551Z,16092
2018-05-13T08:10:09.521Z,16140
2018-05-13T08:11:19.508Z,16204
2018-05-13T08:12:29.486Z,16192
2018-05-13T08:13:39.212Z,16160
2018-05-13T08:14:48.938Z,16224
2018-05-13T08:15:58.923Z,16248
2018-05-13T08:17:08.899Z,16308
2018-05-13T08:18:18.877Z,16296
2018-05-13T08:19:28.876Z,16380
2018-05-13T08:20:38.950Z,16344
2018-05-13T08:21:48.682Z,16300
2018-05-13T08:22:58.132Z,16264
2018-05-13T08:24:08.119Z,16384
2018-05-13T08:25:18.105Z,29664
2018-05-13T08:26:28.114Z,44896
2018-05-13T08:27:38.113Z,45184
2018-05-13T08:28:47.828Z,46016
2018-05-13T08:29:57.807Z,47328
2018-05-13T08:31:07.810Z,48640
2018-05-13T08:32:17.531Z,48864
2018-05-13T08:33:27.520Z,47840
2018-05-13T08:34:37.520Z,48672
2018-05-13T08:35:47.512Z,50624
2018-05-13T08:36:57.492Z,50048
2018-05-13T08:38:07.480Z,49376
2018-05-13T08:39:17.206Z,50496
2018-05-13T08:40:26.931Z,49920
2018-05-13T08:41:36.651Z,50784
2018-05-13T08:42:46.622Z,53120
2018-05-13T08:43:56.342Z,53280
2018-05-13T08:45:05.815Z,53504
2018-05-13T08:46:15.804Z,53696
2018-05-13T08:47:25.612Z,53920
2018-05-13T08:48:35.887Z,55584
2018-05-13T08:49:46.182Z,55296
2018-05-13T08:50:55.926Z,56064
2018-05-13T08:52:05.928Z,56416
2018-05-13T08:53:15.922Z,56608
2018-05-13T08:54:25.909Z,57792
2018-05-13T08:55:35.907Z,58208
2018-05-13T08:56:45.905Z,58272
2018-05-13T08:57:55.885Z,56832
2018-05-13T08:59:05.348Z,58304
2018-05-13T09:00:15.365Z,59776
2018-05-13T09:01:25.357Z,61408
2018-05-13T09:02:35.092Z,60960
2018-05-13T09:03:44.837Z,61472
2018-05-13T09:04:54.840Z,63008
2018-05-13T09:06:04.876Z,63392
2018-05-13T09:07:14.857Z,64640
2018-05-13T09:08:24.962Z,64352
2018-05-13T09:09:34.756Z,65728
2018-05-13T09:10:44.743Z,65632
2018-05-13T09:11:54.471Z,64480
2018-05-13T09:13:04.205Z,61792
2018-05-13T09:14:14.008Z,61696
2018-05-13T09:15:24.199Z,66816
2018-05-13T09:16:34.194Z,67616
2018-05-13T09:17:44.198Z,70464
2018-05-13T09:18:54.214Z,73504
2018-05-13T09:20:04.203Z,73440
2018-05-13T09:21:14.205Z,73504
2018-05-13T09:22:23.936Z,74656
2018-05-13T09:23:33.945Z,74176
2018-05-13T09:24:43.680Z,72896
2018-05-13T09:25:53.751Z,74880
2018-05-13T09:27:03.476Z,74048
2018-05-13T09:28:13.471Z,74048
2018-05-13T09:29:23.209Z,77472
2018-05-13T09:30:33.311Z,77120
2018-05-13T09:31:42.774Z,79104
2018-05-13T09:32:52.760Z,79456
2018-05-13T09:34:02.828Z,75840
2018-05-13T09:35:12.820Z,78112
2018-05-13T09:36:22.800Z,82048
2018-05-13T09:37:32.807Z,79520
2018-05-13T09:38:42.815Z,81600
2018-05-13T09:39:52.805Z,85280
2018-05-13T09:41:02.538Z,82432
2018-05-13T09:42:12.527Z,84192
2018-05-13T09:43:22.274Z,85856
2018-05-13T09:44:31.999Z,82304
2018-05-13T09:45:41.740Z,82880
2018-05-13T09:46:51.582Z,97408
2018-05-13T09:48:01.597Z,97408
2018-05-13T09:49:11.629Z,82656
2018-05-13T09:50:21.360Z,81088
2018-05-13T09:51:31.233Z,100640
2018-05-13T09:52:41.221Z,93184
2018-05-13T09:53:51.219Z,82912
2018-05-13T09:55:00.941Z,87776
2018-05-13T09:56:10.671Z,88832
2018-05-13T09:57:20.684Z,93696
2018-05-13T09:58:30.688Z,90976
2018-05-13T09:59:40.681Z,87168
2018-05-13T10:00:50.437Z,88288
2018-05-13T10:02:00.236Z,92064
2018-05-13T10:03:10.258Z,82432
2018-05-13T10:04:20.428Z,95392
2018-05-13T10:05:30.600Z,89600
2018-05-13T10:06:40.341Z,86592
2018-05-13T10:07:50.331Z,81312
2018-05-13T10:09:00.346Z,94048
2018-05-13T10:10:10.348Z,84832
2018-05-13T10:11:20.363Z,87584
2018-05-13T10:12:30.099Z,89536
2018-05-13T10:13:39.843Z,83424
2018-05-13T10:14:49.331Z,103424
2018-05-13T10:15:59.319Z,106496
2018-05-13T10:17:09.296Z,115040
2018-05-13T10:18:18.771Z,106464
2018-05-13T10:19:28.670Z,103552
2018-05-13T10:20:38.769Z,94912
2018-05-13T10:21:48.257Z,103040
2018-05-13T10:22:58.238Z,105344
2018-05-13T10:24:07.952Z,103360
2018-05-13T10:25:17.675Z,105248
2018-05-13T10:26:27.414Z,106848
2018-05-13T10:27:36.894Z,107232
2018-05-13T10:28:46.878Z,108032
2018-05-13T10:29:56.868Z,109248
2018-05-13T10:31:06.625Z,108288
2018-05-13T10:32:16.626Z,110208
2018-05-13T10:33:26.656Z,107904
2018-05-13T10:34:36.126Z,107808
2018-05-13T10:35:46.108Z,111328
2018-05-13T10:36:56.101Z,111200
2018-05-13T10:38:06.086Z,113376
2018-05-13T10:39:16.091Z,111648
2018-05-13T10:40:25.875Z,112576
2018-05-13T10:41:35.883Z,109216
2018-05-13T10:42:45.616Z,109216
2018-05-13T10:43:55.336Z,113824
2018-05-13T10:45:05.111Z,113536
2018-05-13T10:46:14.590Z,112064
2018-05-13T10:47:24.609Z,112256
2018-05-13T10:48:34.384Z,113696
2018-05-13T10:49:43.855Z,113760
2018-05-13T10:50:53.957Z,112992
2018-05-13T10:52:03.725Z,113856
2018-05-13T10:53:13.478Z,111232
2018-05-13T10:54:23.476Z,107488
2018-05-13T10:55:33.208Z,113024
2018-05-13T10:56:43.210Z,118976
2018-05-13T10:57:53.261Z,106592
2018-05-13T10:59:03.260Z,103872
2018-05-13T11:00:13.264Z,124928
2018-05-13T11:01:22.989Z,122208
2018-05-13T11:02:33.010Z,121568
2018-05-13T11:03:42.737Z,133568
2018-05-13T11:04:53.167Z,125536
2018-05-13T11:06:03.258Z,121120
2018-05-13T11:07:13.265Z,120192
2018-05-13T11:08:23.281Z,116480
2018-05-13T11:09:33.287Z,113504
2018-05-13T11:10:43.363Z,115712
2018-05-13T11:11:52.844Z,115424
2018-05-13T11:13:02.836Z,116128
2018-05-13T11:14:12.839Z,119584
2018-05-13T11:15:22.850Z,117376
2018-05-13T11:16:32.849Z,114688
2018-05-13T11:17:42.858Z,117600
2018-05-13T11:18:52.855Z,121888
2018-05-13T11:20:02.603Z,115616
2018-05-13T11:21:12.361Z,116896
2018-05-13T11:22:22.371Z,124736
2018-05-13T11:23:32.353Z,127648
2018-05-13T11:24:41.579Z,121536
2018-05-13T11:25:51.301Z,127264
2018-05-13T11:27:01.506Z,126752
2018-05-13T11:28:11.491Z,117056
2018-05-13T11:29:21.243Z,118240
2018-05-13T11:30:30.986Z,122080
2018-05-13T11:31:40.986Z,126016
2018-05-13T11:32:50.717Z,128000
2018-05-13T11:34:00.910Z,126720
2018-05-13T11:35:10.900Z,126400
2018-05-13T11:36:20.913Z,123680
2018-05-13T11:37:30.650Z,124800
2018-05-13T11:38:40.384Z,132864
2018-05-13T11:39:50.443Z,127264
2018-05-13T11:41:00.562Z,126464
2018-05-13T11:42:10.557Z,123776
2018-05-13T11:43:20.549Z,123552
2018-05-13T11:44:30.539Z,126464
2018-05-13T11:45:40.279Z,124032
2018-05-13T11:46:50.531Z,121632
2018-05-13T11:48:00.570Z,123200
2018-05-13T11:49:10.570Z,120608
2018-05-13T11:50:20.574Z,128032
2018-05-13T11:51:30.316Z,128288
2018-05-13T11:52:40.319Z,122080
2018-05-13T11:53:50.317Z,129408
2018-05-13T11:55:00.072Z,127008
2018-05-13T11:56:10.083Z,127456
2018-05-13T11:57:20.076Z,123168
2018-05-13T11:58:29.538Z,113280
2018-05-13T11:59:39.556Z,117248
2018-05-13T12:00:49.295Z,125760
2018-05-13T12:01:59.039Z,128192
2018-05-13T12:03:08.790Z,124544
2018-05-13T12:04:18.519Z,127968
2018-05-13T12:05:28.259Z,137632
2018-05-13T12:06:38.251Z,133536
2018-05-13T12:07:48.253Z,128800
2018-05-13T12:08:57.727Z,130784
2018-05-13T12:10:07.724Z,127264
2018-05-13T12:11:17.462Z,126880
2018-05-13T12:12:27.217Z,126880
2018-05-13T12:13:36.682Z,127136
2018-05-13T12:14:46.427Z,124416
2018-05-13T12:15:56.421Z,125056
2018-05-13T12:17:06.440Z,130976
2018-05-13T12:18:16.196Z,126976
2018-05-13T12:19:26.178Z,125376
2018-05-13T12:20:36.181Z,129984
2018-05-13T12:21:46.186Z,127328
2018-05-13T12:22:56.173Z,124000
2018-05-13T12:24:05.938Z,124320
2018-05-13T12:25:15.934Z,119872
2018-05-13T12:26:25.665Z,120544
2018-05-13T12:27:35.677Z,123872
2018-05-13T12:28:45.675Z,121216
2018-05-13T12:29:55.408Z,125888
2018-05-13T12:31:05.495Z,134752
2018-05-13T12:32:15.713Z,130784
2018-05-13T12:33:25.711Z,119808
2018-05-13T12:34:35.706Z,124800
2018-05-13T12:35:45.719Z,137280
2018-05-13T12:36:55.720Z,133312
2018-05-13T12:38:06.029Z,128384
2018-05-13T12:39:16.062Z,128992
2018-05-13T12:40:26.053Z,128192
2018-05-13T12:41:36.056Z,122752
2018-05-13T12:42:46.064Z,119072
2018-05-13T12:43:55.790Z,122304
2018-05-13T12:45:05.517Z,125984
2018-05-13T12:46:15.510Z,127104
2018-05-13T12:47:25.506Z,130176
2018-05-13T12:48:35.249Z,132160
2018-05-13T12:49:45.013Z,126944
2018-05-13T12:50:55.009Z,124384
2018-05-13T12:52:04.998Z,124256
2018-05-13T12:53:14.984Z,121664
2018-05-13T12:54:24.449Z,121664
2018-05-13T12:55:34.184Z,127744
2018-05-13T12:56:44.182Z,133600
2018-05-13T12:57:53.938Z,130784
2018-05-13T12:59:03.947Z,128992
2018-05-13T13:00:13.939Z,132320
2018-05-13T13:01:23.944Z,129568
2018-05-13T13:02:33.705Z,126528
2018-05-13T13:03:43.862Z,127712
2018-05-13T13:04:53.545Z,127168
2018-05-13T13:06:03.633Z,125728
2018-05-13T13:07:13.628Z,120192
2018-05-13T13:08:23.622Z,118816
2018-05-13T13:09:33.965Z,131136
2018-05-13T13:10:43.696Z,128544
2018-05-13T13:11:53.441Z,122592
2018-05-13T13:13:03.740Z,124864
2018-05-13T13:14:13.807Z,125632
2018-05-13T13:15:23.692Z,120224
2018-05-13T13:16:33.684Z,118272
2018-05-13T13:17:43.686Z,122752
2018-05-13T13:18:53.684Z,121824
2018-05-13T13:20:03.789Z,126112
2018-05-13T13:21:13.952Z,127840
2018-05-13T13:22:24.038Z,122400
2018-05-13T13:23:33.764Z,124832
2018-05-13T13:24:43.757Z,128896
2018-05-13T13:25:53.607Z,127712
2018-05-13T13:27:03.632Z,119104
2018-05-13T13:28:13.635Z,120096
2018-05-13T13:29:23.628Z,127552
2018-05-13T13:30:34.035Z,122176
2018-05-13T13:31:44.163Z,112448
2018-05-13T13:32:54.148Z,124160
2018-05-13T13:34:04.158Z,137056
2018-05-13T13:35:14.155Z,129440
2018-05-13T13:36:24.151Z,101920
2018-05-13T13:37:34.140Z,106272
2018-05-13T13:38:44.130Z,115584
2018-05-13T13:39:54.119Z,107392
2018-05-13T13:41:03.875Z,94016
2018-05-13T13:42:13.628Z,112384
2018-05-13T13:43:23.353Z,124192
2018-05-13T13:44:33.344Z,127392
2018-05-13T13:45:43.348Z,130464
2018-05-13T13:46:53.351Z,127072
2018-05-13T13:48:03.329Z,121824
2018-05-13T13:49:13.065Z,127904
2018-05-13T13:50:23.071Z,131584
2018-05-13T13:51:33.072Z,124640
2018-05-13T13:53:08.730Z,123136
2018-05-13T13:54:18.728Z,117824
2018-05-13T13:55:28.750Z,120192
2018-05-13T13:56:38.477Z,125792
2018-05-13T13:57:48.470Z,116768
2018-05-13T13:58:58.479Z,116224
2018-05-13T14:00:08.483Z,114944
2018-05-13T14:01:18.526Z,106336
2018-05-13T14:02:28.243Z,108640
2018-05-13T14:03:37.746Z,113888
2018-05-13T14:04:47.751Z,108384
2018-05-13T14:05:57.735Z,102304
2018-05-13T14:07:07.753Z,111328
2018-05-13T14:08:17.751Z,118752
2018-05-13T14:09:27.741Z,113120
2018-05-13T14:10:37.480Z,117632
2018-05-13T14:11:47.290Z,126208
2018-05-13T14:12:57.295Z,113312
2018-05-13T14:14:06.775Z,118272
2018-05-13T14:15:16.786Z,125248
2018-05-13T14:16:26.785Z,114976
2018-05-13T14:17:36.507Z,111616
2018-05-13T14:18:46.241Z,116224
2018-05-13T14:19:56.404Z,114688
2018-05-13T14:21:06.430Z,106496
2018-05-13T14:22:16.419Z,102976
2018-05-13T14:23:26.411Z,109568
2018-05-13T14:24:36.147Z,107264
2018-05-13T14:25:46.142Z,100800
2018-05-13T14:26:55.998Z,104864
2018-05-13T14:28:06.068Z,109440
2018-05-13T14:29:16.534Z,112192
2018-05-13T14:30:26.651Z,111712
2018-05-13T14:31:36.713Z,109792
2018-05-13T14:32:46.700Z,112768
2018-05-13T14:33:56.433Z,106976
2018-05-13T14:35:06.512Z,100960
2018-05-13T14:36:16.241Z,115808
2018-05-13T14:37:25.964Z,107968
2018-05-13T14:38:35.964Z,107552
2018-05-13T14:39:46.065Z,112032
2018-05-13T14:40:55.803Z,109024
2018-05-13T14:42:05.714Z,110880
2018-05-13T14:43:15.695Z,104480
2018-05-13T14:44:25.187Z,104064
2018-05-13T14:45:34.718Z,109024
2018-05-13T14:46:44.739Z,103136
2018-05-13T14:47:54.383Z,105696
2018-05-13T14:49:04.376Z,107104
2018-05-13T14:50:14.128Z,105344
2018-05-13T14:51:24.133Z,101568
2018-05-13T14:52:34.130Z,100992
2018-05-13T14:53:43.874Z,113632
2018-05-13T14:54:53.871Z,110912
2018-05-13T14:56:03.616Z,110336
2018-05-13T14:57:13.351Z,106560
2018-05-13T14:58:23.353Z,104448
2018-05-13T14:59:33.354Z,105152
2018-05-13T15:00:43.365Z,112288
2018-05-13T15:01:53.374Z,107200
2018-05-13T15:03:03.127Z,106720
2018-05-13T15:04:38.269Z,90656
2018-05-13T15:05:48.263Z,80800
2018-05-13T15:06:58.256Z,100256
2018-05-13T15:08:07.712Z,84224
2018-05-13T15:09:17.210Z,77280
2018-05-13T15:10:27.421Z,93760
2018-05-13T15:11:37.164Z,81696
2018-05-13T15:12:46.887Z,89376
2018-05-13T15:13:56.383Z,100864
2018-05-13T15:15:05.881Z,100384
2018-05-13T15:16:15.363Z,97568
2018-05-13T15:17:25.357Z,93632
2018-05-13T15:18:35.094Z,96640
2018-05-13T15:19:44.832Z,94624
2018-05-13T15:20:54.308Z,90432
2018-05-13T15:22:04.372Z,100416